Daily Weather Observations for Burdell (Townsville)
For Wednesday 13th February 2019

This table is designed for ease of comparison to Bureau of Meteorology recorded weather data.

Station Details Name: BURDELL Lat: -19.24 Lon: 146.69 Height: 8.5 m
Date/Time
EST
Temp
°C
App
Temp
°C
Dew
Point
°C
Rel
Hum
%
Delta-T
°C
Wind Press
QNH
hPa
Press
MSL
hPa
Rain since
9am
mm
Dir  Spd
km/h
Gust
km/h
Spd
kts
Gust
kts
13/11:30pm 26.3 31.5 23.2 83 2.2 ENE 1 2 0 1 1003.4 1003.4 0.0
13/11:00pm 26.8 31.6 22.3 77 3.2 CALM 0 0 0 0 1003.5 1003.5 0.0
13/10:30pm 27.6 32.3 22.1 72 3.9 NW 1 2 0 1 1003.4 1003.4 0.0
13/10:00pm 27.8 33.1 23.2 76 3.3 NW 1 2 0 1 1003.4 1003.4 0.0
13/09:30pm 28.2 33.5 23.6 76 3.3 NNW 2 2 1 1 1003.2 1003.2 0.0
13/09:00pm 28.9 34.9 24.2 76 3.4 CALM 0 0 0 0 1003.2 1003.2 0.0
13/08:30pm 29.4 35.2 24.0 73 3.9 NNW 0 2 0 1 1003.1 1003.1 0.0
13/08:00pm 29.9 35.8 24.3 72 4.1 NNW 0 1 0 1 1002.9 1002.9 0.0
13/07:30pm 30.4 36.6 24.9 73 4.1 NNW 2 2 1 1 1002.8 1002.8 0.0
13/07:00pm 31.2 37.5 24.6 68 4.9 NW 3 5 2 3 1002.6 1002.6 0.0
13/06:30pm 32.8 39.0 24.2 62 6.3 NNW 6 8 3 4 1002.3 1002.3 0.0
13/06:00pm 35.1 41.4 23.8 54 8.2 NNW 10 13 5 7 1002.0 1002.0 0.0
13/05:30pm 35.9 38.6 19.8 39 11.0 NNW 15 18 8 10 1001.7 1001.7 0.0
13/05:00pm 36.2 38.7 19.5 38 11.3 NNW 16 18 8 10 1001.5 1001.5 0.0
13/04:30pm 36.4 39.2 19.8 38 11.3 NNW 16 21 9 11 1001.3 1001.3 0.0
13/04:00pm 36.2 40.5 21.5 43 10.3 NNW 18 21 10 11 1001.3 1001.3 0.0
13/03:30pm 36.2 41.1 22.0 44 10.1 NNW 19 23 10 13 1001.9 1001.9 0.0
13/03:00pm 36.3 40.3 21.2 42 10.6 NNW 18 21 10 11 1002.0 1002.0 0.0
13/02:30pm 35.7 38.7 20.3 41 10.6 NNW 19 21 10 11 1002.4 1002.4 0.0
13/02:00pm 35.6 40.3 22.1 46 9.6 NNW 18 23 10 13 1002.7 1002.7 0.0
13/01:30pm 35.4 41.4 23.3 50 8.7 NNW 15 18 8 10 1003.0 1003.0 0.0
13/01:00pm 34.9 41.0 23.5 52 8.3 NNW 15 18 8 10 1003.4 1003.4 0.0
13/12:30pm 34.8 41.0 23.5 52 8.2 NNW 16 21 9 11 1003.8 1003.8 0.0
13/12:00pm 34.2 41.2 24.4 57 7.2 NNW 17 21 9 11 1004.2 1004.2 0.0
13/11:30am 34.9 43.1 25.0 57 7.3 NNW 14 18 7 10 1004.4 1004.4 0.0
13/11:00am 35.9 44.3 24.8 53 8.2 NW 6 10 3 6 1005.0 1005.0 0.0
13/10:30am 35.2 37.6 19.6 40 10.6 NW 9 13 5 7 1004.9 1004.9 0.0
13/10:00am 34.1 37.1 20.1 44 9.6 NW 7 10 4 6 1005.2 1005.2 0.0
13/09:30am 32.5 35.7 21.3 52 7.8 NNW 6 8 3 4 1005.2 1005.2 0.0
13/09:00am 31.4 34.9 21.3 56 7.1 NNW 4 5 2 3 1005.2 1005.2 0.0
13/08:30am 30.3 34.2 21.7 61 6.1 NNW 2 5 1 3 1005.4 1005.4 0.0
13/08:00am 28.4 33.0 22.8 74 4.0 NW 3 5 1 3 1005.3 1005.3 0.0
13/07:30am 26.2 31.4 23.1 85 2.2 W 1 2 1 1 1004.9 1004.9 0.0
13/07:00am 23.9 28.5 22.0 90 1.3 SSE 0 2 0 1 1004.5 1004.5 0.0
13/06:30am 22.5 26.8 21.3 93 0.8 SSE 0 2 0 1 1004.2 1004.2 0.0
13/06:00am 22.2 26.0 20.8 92 1.0 SSE 2 5 1 3 1003.9 1003.9 0.0
13/05:30am 22.4 26.4 20.9 92 1.0 NW 1 2 0 1 1003.4 1003.4 0.0
13/05:00am 22.7 26.8 21.3 92 1.0 NW 2 2 1 1 1003.2 1003.2 0.0
13/04:30am 23.3 27.7 21.4 89 1.3 SSW 0 2 0 1 1003.0 1003.0 0.0
13/04:00am 23.6 27.8 21.7 90 1.3 SSW 3 5 2 3 1002.9 1002.9 0.0
13/03:30am 23.9 27.9 22.5 92 1.0 WSW 6 8 3 4 1002.7 1002.7 0.0
13/03:00am 24.0 29.1 23.0 94 0.7 WNW 4 8 2 4 1002.8 1002.8 0.0
13/02:30am 24.3 29.2 23.1 93 0.9 W 2 5 1 3 1003.1 1003.1 0.0
13/02:00am 24.2 29.4 23.0 93 0.9 CALM 0 0 0 0 1003.3 1003.3 0.0
13/01:30am 24.8 30.1 23.2 92 1.2 WNW 1 2 0 1 1003.5 1003.5 0.0
13/01:00am 25.8 31.3 23.6 88 1.6 S 1 3 0 2 1003.8 1003.8 0.0
13/12:30am 26.1 31.5 23.6 86 1.8 S 2 2 1 1 1004.0 1004.0 0.0
13/12:00am 26.6 31.8 23.4 83 2.3 SSW 1 2 1 1 1004.1 1004.1 0.0
 


NOTE: The apparent temperature specified in the table above is calculated using both the Heat Index and Steadman method. This differs to the Bureau of Meteorology's calculation which uses the Steadman method alone.